Buoy 13600

sailwx.info

Track history (hours):
 
Tides and Currents Weather Stations Pressure Air Temp Water Temp Dewpoint Dewpoint Depression Visibility Wind Speed Wind Dir Waves Ship Positions

Drifting buoy 13600

Last reported at 2018-May-17 15:00 UTC. Time now 2018-Jun-19 12:23 UTC.
Position N 18°05' W 077°58'.
Warning: this ship's position is 32 days out of date.

Water temperature 27.3 ° C

Date/timePositionNaut miles runAvg speedWind from/ knotsBaromVisibWave heightAir tempDewpointWater temp
2018-May-17 15:00N 18°05' W 077°58'1 0.6 27.3
2018-May-17 14:00N 18°05' W 077°58'0 0.0 26.5
2018-May-17 13:00N 18°05' W 077°58'0 0.0 25.6
2018-May-17 11:00N 18°05' W 077°58'0 0.0 24.5
2018-May-17 10:00N 18°05' W 077°58'0 0.0 24.6
2018-May-17 09:00N 18°05' W 077°58'0 0.0 24.7
2018-May-17 08:00N 18°05' W 077°58'0 0.0 25.1
2018-May-17 07:00N 18°05' W 077°58'0 0.0 25.4
2018-May-17 03:00N 18°05' W 077°58'0 0.0 27.2
2018-May-17 02:00N 18°05' W 077°58'0 0.0 28.0
2018-May-17 00:00N 18°05' W 077°58'0 0.0 29.4
2018-May-16 23:00N 18°05' W 077°58'0 0.0 29.9
2018-May-16 22:00N 18°05' W 077°58'0 0.0 30.2
2018-May-16 21:00N 18°05' W 077°58'0 0.0 30.4
2018-May-16 20:00N 18°05' W 077°58'0 0.0 30.6
2018-May-16 15:00N 18°05' W 077°58'1 0.6 28.0
2018-May-16 14:00N 18°05' W 077°58'1 0.6 27.0
2018-May-16 13:00N 18°05' W 077°58'0 0.0 26.2
2018-May-16 11:00N 18°05' W 077°58'0 0.0 25.6
2018-May-16 10:00N 18°05' W 077°58'0 0.0 25.8
2018-May-16 09:00N 18°05' W 077°58'0 0.0 26.1
2018-May-16 07:00N 18°05' W 077°58'0 0.0 26.4
2018-May-16 00:00N 18°05' W 077°58'0 0.0 29.6
2018-May-15 22:00N 18°05' W 077°58'0 0.0 30.6
2018-May-15 21:00N 18°05' W 077°58'0 0.0 30.6
2018-May-15 20:00N 18°05' W 077°58'0 0.0 30.8
2018-May-15 19:00N 18°05' W 077°58'0 0.0 30.6
2018-May-15 13:00N 18°05' W 077°58'1 0.6 26.1
2018-May-15 12:00N 18°05' W 077°58'0 0.0 25.0
2018-May-15 11:00N 18°05' W 077°58'0 0.0 24.5
2018-May-15 08:00N 18°05' W 077°58'1 0.1 25.7
2018-May-15 02:00N 18°05' W 077°58'1 0.3 27.3
2018-May-15 00:00N 18°05' W 077°58'0 0.0 29.0
2018-May-14 23:00N 18°05' W 077°58'1 0.2 29.5
2018-May-14 20:00N 18°05' W 077°58'0 0.0 30.2
2018-May-14 19:00N 18°05' W 077°58'0 0.0 29.9
2018-May-14 15:00N 18°05' W 077°58'0 0.0 27.3
2018-May-14 11:00N 18°05' W 077°58'0 0.0 23.6
2018-May-14 09:00N 18°05' W 077°58'0 0.0 24.0
2018-May-14 08:00N 18°05' W 077°58'0 0.0 24.3
2018-May-14 02:00N 18°05' W 077°58'1 0.3 27.1
2018-May-14 00:00N 18°05' W 077°58'1 0.6 28.4
2018-May-13 23:00N 18°05' W 077°58'0 0.0 29.1
2018-May-13 19:00N 18°05' W 077°58'0 0.0 29.7
2018-May-13 15:00N 18°05' W 077°58'0 0.0 27.0
2018-May-13 12:00N 18°05' W 077°58'0 0.0 23.7
2018-May-13 11:00N 18°05' W 077°58'1 0.6 23.5
2018-May-13 10:00N 18°05' W 077°58'1 0.4 23.6
2018-May-13 08:00N 18°05' W 077°58'1 0.1 23.6
2018-May-13 01:00N 18°05' W 077°58'1 0.6 26.9
2018-May-13 00:00N 18°06' W 077°58'1 0.6 27.6
2018-May-12 23:00N 18°05' W 077°58'0 0.0 28.1
2018-May-12 20:00N 18°05' W 077°58'0 0.0 29.2
2018-May-12 19:00N 18°05' W 077°58'0 0.0 29.2
2018-May-12 15:00N 18°05' W 077°58'0 0.0 26.8
2018-May-12 13:00N 18°05' W 077°58'0 0.0 24.9
2018-May-12 12:00N 18°05' W 077°58'0 0.0 24.0
2018-May-12 11:00N 18°05' W 077°58'0 0.0 23.5
2018-May-12 10:00N 18°05' W 077°58'0 0.0 23.3
2018-May-12 09:00N 18°05' W 077°58'0 0.0 23.7
2018-May-12 03:00N 18°05' W 077°58'0 0.0 25.7
2018-May-12 01:00N 18°05' W 077°58'0 0.0 26.9
2018-May-11 20:00N 18°05' W 077°58'0 0.0 29.9
2018-May-11 15:00N 18°05' W 077°58'1 0.1 27.6
2018-May-11 09:00N 18°05' W 077°58'0 0.0 24.5
2018-May-11 08:00N 18°05' W 077°58'1 0.1 24.8
2018-May-11 02:00N 18°05' W 077°58'1 0.1 27.2
2018-May-10 21:00N 18°05' W 077°58'0 0.0 29.4
2018-May-10 20:00N 18°05' W 077°58'0 0.0 29.5
2018-May-10 12:00N 18°05' W 077°58'1 0.3 24.1
2018-May-10 10:00N 18°05' W 077°58'0 0.0 24.1
2018-May-10 09:00N 18°05' W 077°58'0 0.0 24.3
2018-May-10 02:00N 18°05' W 077°58'0 0.0 26.7
2018-May-10 00:00N 18°05' W 077°58'0 0.0 28.1
2018-May-09 23:00N 18°05' W 077°58'0 0.0 28.5
2018-May-09 22:00N 18°05' W 077°58'0 0.0 28.6
2018-May-09 21:00N 18°05' W 077°58'0 0.0 28.9
2018-May-09 20:00N 18°05' W 077°58'1 0.6 29.1
2018-May-09 19:00N 18°05' W 077°58'1 0.1 28.9
2018-May-09 15:00N 18°05' W 077°58'0 0.0
2018-May-09 13:00N 18°05' W 077°58'0 0.0 26.8
2018-May-09 12:00N 18°05' W 077°58'1 0.8 25.1
2018-May-09 11:00N 18°05' W 077°58'1 0.8 24.6
2018-May-09 10:00N 18°05' W 077°58'1 0.6 24.7
2018-May-09 09:00N 18°05' W 077°58'1 0.3 24.8
2018-May-09 07:00N 18°05' W 077°58'0 0.0 25.3
2018-May-09 02:00N 18°05' W 077°58'1 0.6 27.6
2018-May-09 01:00N 18°06' W 077°58'1 0.6 27.9
2018-May-09 00:00N 18°05' W 077°58'0 0.0 28.1
2018-May-08 22:00N 18°05' W 077°58'0 0.0 29.3
2018-May-08 21:00N 18°05' W 077°58'0 0.0 29.6
2018-May-08 20:00N 18°05' W 077°58'0 0.0 29.4
2018-May-08 19:00N 18°05' W 077°58'0 0.0 29.4
2018-May-08 15:00N 18°05' W 077°58'0 0.0 28.3
2018-May-08 14:00N 18°05' W 077°58'0 0.0 27.1
2018-May-08 13:00N 18°05' W 077°58'1 1.2 26.2
2018-May-08 12:00N 18°04' W 077°58'1 0.6 25.6
2018-May-08 11:00N 18°05' W 077°58'1 0.6 25.4
2018-May-08 10:00N 18°05' W 077°58'0 0.0 25.6
2018-May-08 09:00N 18°05' W 077°58'0 0.0 25.6
2018-May-08 08:00N 18°05' W 077°58'0 0.0 25.9
2018-May-08 02:00N 18°05' W 077°58'0 0.0 27.0
2018-May-08 01:00N 18°05' W 077°58'0 0.0 27.3
2018-May-08 00:00N 18°05' W 077°58'0 0.0 27.6
2018-May-07 23:00N 18°05' W 077°58'0 0.0 28.1
2018-May-07 22:00N 18°05' W 077°58'0 0.0 28.4
2018-May-07 21:00N 18°05' W 077°58'0 0.0 28.6
2018-May-07 20:00N 18°05' W 077°58'0 0.0 28.8
2018-May-07 15:00N 18°05' W 077°58'   25.9
Track history (hours):
 
Tides and Currents Weather Stations Pressure Air Temp Water Temp Dewpoint Dewpoint Depression Visibility Wind Speed Wind Dir Waves Ship Positions

Drifting buoy 13600

Last reported at 2018-May-17 15:00 UTC. Time now 2018-Jun-19 12:23 UTC.
Position N 18°05' W 077°58'.
Warning: this ship's position is 32 days out of date.

Water temperature 27.3 ° C

Date/timePositionNaut miles runAvg speedWind from/ knotsBaromVisibWave heightAir tempDewpointWater temp
2018-May-17 15:00N 18°05' W 077°58'1 0.6 27.3
2018-May-17 14:00N 18°05' W 077°58'0 0.0 26.5
2018-May-17 13:00N 18°05' W 077°58'0 0.0 25.6
2018-May-17 11:00N 18°05' W 077°58'0 0.0 24.5
2018-May-17 10:00N 18°05' W 077°58'0 0.0 24.6
2018-May-17 09:00N 18°05' W 077°58'0 0.0 24.7
2018-May-17 08:00N 18°05' W 077°58'0 0.0 25.1
2018-May-17 07:00N 18°05' W 077°58'0 0.0 25.4
2018-May-17 03:00N 18°05' W 077°58'0 0.0 27.2
2018-May-17 02:00N 18°05' W 077°58'0 0.0 28.0
2018-May-17 00:00N 18°05' W 077°58'0 0.0 29.4
2018-May-16 23:00N 18°05' W 077°58'0 0.0 29.9
2018-May-16 22:00N 18°05' W 077°58'0 0.0 30.2
2018-May-16 21:00N 18°05' W 077°58'0 0.0 30.4
2018-May-16 20:00N 18°05' W 077°58'0 0.0 30.6
2018-May-16 15:00N 18°05' W 077°58'1 0.6 28.0
2018-May-16 14:00N 18°05' W 077°58'1 0.6 27.0
2018-May-16 13:00N 18°05' W 077°58'0 0.0 26.2
2018-May-16 11:00N 18°05' W 077°58'0 0.0 25.6
2018-May-16 10:00N 18°05' W 077°58'0 0.0 25.8
2018-May-16 09:00N 18°05' W 077°58'0 0.0 26.1
2018-May-16 07:00N 18°05' W 077°58'0 0.0 26.4
2018-May-16 00:00N 18°05' W 077°58'0 0.0 29.6
2018-May-15 22:00N 18°05' W 077°58'0 0.0 30.6
2018-May-15 21:00N 18°05' W 077°58'0 0.0 30.6
2018-May-15 20:00N 18°05' W 077°58'0 0.0 30.8
2018-May-15 19:00N 18°05' W 077°58'0 0.0 30.6
2018-May-15 13:00N 18°05' W 077°58'1 0.6 26.1
2018-May-15 12:00N 18°05' W 077°58'0 0.0 25.0
2018-May-15 11:00N 18°05' W 077°58'0 0.0 24.5
2018-May-15 08:00N 18°05' W 077°58'1 0.1 25.7
2018-May-15 02:00N 18°05' W 077°58'1 0.3 27.3
2018-May-15 00:00N 18°05' W 077°58'0 0.0 29.0
2018-May-14 23:00N 18°05' W 077°58'1 0.2 29.5
2018-May-14 20:00N 18°05' W 077°58'0 0.0 30.2
2018-May-14 19:00N 18°05' W 077°58'0 0.0 29.9
2018-May-14 15:00N 18°05' W 077°58'0 0.0 27.3
2018-May-14 11:00N 18°05' W 077°58'0 0.0 23.6
2018-May-14 09:00N 18°05' W 077°58'0 0.0 24.0
2018-May-14 08:00N 18°05' W 077°58'0 0.0 24.3
2018-May-14 02:00N 18°05' W 077°58'1 0.3 27.1
2018-May-14 00:00N 18°05' W 077°58'1 0.6 28.4
2018-May-13 23:00N 18°05' W 077°58'0 0.0 29.1
2018-May-13 19:00N 18°05' W 077°58'0 0.0 29.7
2018-May-13 15:00N 18°05' W 077°58'0 0.0 27.0
2018-May-13 12:00N 18°05' W 077°58'0 0.0 23.7
2018-May-13 11:00N 18°05' W 077°58'1 0.6 23.5
2018-May-13 10:00N 18°05' W 077°58'1 0.4 23.6
2018-May-13 08:00N 18°05' W 077°58'1 0.1 23.6
2018-May-13 01:00N 18°05' W 077°58'1 0.6 26.9
2018-May-13 00:00N 18°06' W 077°58'1 0.6 27.6
2018-May-12 23:00N 18°05' W 077°58'0 0.0 28.1
2018-May-12 20:00N 18°05' W 077°58'0 0.0 29.2
2018-May-12 19:00N 18°05' W 077°58'0 0.0 29.2
2018-May-12 15:00N 18°05' W 077°58'0 0.0 26.8
2018-May-12 13:00N 18°05' W 077°58'0 0.0 24.9
2018-May-12 12:00N 18°05' W 077°58'0 0.0 24.0
2018-May-12 11:00N 18°05' W 077°58'0 0.0 23.5
2018-May-12 10:00N 18°05' W 077°58'0 0.0 23.3
2018-May-12 09:00N 18°05' W 077°58'0 0.0 23.7
2018-May-12 03:00N 18°05' W 077°58'0 0.0 25.7
2018-May-12 01:00N 18°05' W 077°58'0 0.0 26.9
2018-May-11 20:00N 18°05' W 077°58'0 0.0 29.9
2018-May-11 15:00N 18°05' W 077°58'1 0.1 27.6
2018-May-11 09:00N 18°05' W 077°58'0 0.0 24.5
2018-May-11 08:00N 18°05' W 077°58'1 0.1 24.8
2018-May-11 02:00N 18°05' W 077°58'1 0.1 27.2
2018-May-10 21:00N 18°05' W 077°58'0 0.0 29.4
2018-May-10 20:00N 18°05' W 077°58'0 0.0 29.5
2018-May-10 12:00N 18°05' W 077°58'1 0.3 24.1
2018-May-10 10:00N 18°05' W 077°58'0 0.0 24.1
2018-May-10 09:00N 18°05' W 077°58'0 0.0 24.3
2018-May-10 02:00N 18°05' W 077°58'0 0.0 26.7
2018-May-10 00:00N 18°05' W 077°58'0 0.0 28.1
2018-May-09 23:00N 18°05' W 077°58'0 0.0 28.5
2018-May-09 22:00N 18°05' W 077°58'0 0.0 28.6
2018-May-09 21:00N 18°05' W 077°58'0 0.0 28.9
2018-May-09 20:00N 18°05' W 077°58'1 0.6 29.1
2018-May-09 19:00N 18°05' W 077°58'1 0.1 28.9
2018-May-09 15:00N 18°05' W 077°58'0 0.0
2018-May-09 13:00N 18°05' W 077°58'0 0.0 26.8
2018-May-09 12:00N 18°05' W 077°58'1 0.8 25.1
2018-May-09 11:00N 18°05' W 077°58'1 0.8 24.6
2018-May-09 10:00N 18°05' W 077°58'1 0.6 24.7
2018-May-09 09:00N 18°05' W 077°58'1 0.3 24.8
2018-May-09 07:00N 18°05' W 077°58'0 0.0 25.3
2018-May-09 02:00N 18°05' W 077°58'1 0.6 27.6
2018-May-09 01:00N 18°06' W 077°58'1 0.6 27.9
2018-May-09 00:00N 18°05' W 077°58'0 0.0 28.1
2018-May-08 22:00N 18°05' W 077°58'0 0.0 29.3
2018-May-08 21:00N 18°05' W 077°58'0 0.0 29.6
2018-May-08 20:00N 18°05' W 077°58'0 0.0 29.4
2018-May-08 19:00N 18°05' W 077°58'0 0.0 29.4
2018-May-08 15:00N 18°05' W 077°58'0 0.0 28.3
2018-May-08 14:00N 18°05' W 077°58'0 0.0 27.1
2018-May-08 13:00N 18°05' W 077°58'1 1.2 26.2
2018-May-08 12:00N 18°04' W 077°58'1 0.6 25.6
2018-May-08 11:00N 18°05' W 077°58'1 0.6 25.4
2018-May-08 10:00N 18°05' W 077°58'0 0.0 25.6
2018-May-08 09:00N 18°05' W 077°58'0 0.0 25.6
2018-May-08 08:00N 18°05' W 077°58'0 0.0 25.9
2018-May-08 02:00N 18°05' W 077°58'0 0.0 27.0
2018-May-08 01:00N 18°05' W 077°58'0 0.0 27.3
2018-May-08 00:00N 18°05' W 077°58'0 0.0 27.6
2018-May-07 23:00N 18°05' W 077°58'0 0.0 28.1
2018-May-07 22:00N 18°05' W 077°58'0 0.0 28.4
2018-May-07 21:00N 18°05' W 077°58'0 0.0 28.6
2018-May-07 20:00N 18°05' W 077°58'0 0.0 28.8
2018-May-07 15:00N 18°05' W 077°58'   25.9

Dump ship's entire track history